Wolftown, Virginia
Current Conditions -  °F | °C
As of 7:53 PM on Monday 22 Dec 2014 (Local Time) from KCHO Reporting Station
Haze Haze  
Wind Chill: 35°   Ceiling: 200
Heat Index: 35°   Visibility: 2mi
Dew Point: 33°   Wind: 0mph
Humidity: 92%   Direction: NA
Pressure: 30.12"   Gusts: NA
Location:  38.36°N, 78.35°W
Report Text: KCHO 230053Z 00000KT 2SM BR BKN002 OVC017 02/01 A3012 RMK AO2 RAE2359B20E39UPB2359E02 SLP204 P0000 T00170006
Loading
Personal Weather Stations






























Interactive Weather Map New forecast layout! Learn more

10-Day Weather Forecast

Advertisements
Track Severe Weather on mobile